sensor_id;sensor_type;location;lat;lon;timestamp;P1;durP1;ratioP1;P2;durP2;ratioP2
75793;SDS011;64418;47.536;19.074;2023-06-10T00:00:43;7.45;;;5.68;;
75793;SDS011;64418;47.536;19.074;2023-06-10T00:03:10;8.70;;;5.80;;
75793;SDS011;64418;47.536;19.074;2023-06-10T00:05:37;8.18;;;5.43;;
75793;SDS011;64418;47.536;19.074;2023-06-10T00:08:04;11.83;;;5.90;;
75793;SDS011;64418;47.536;19.074;2023-06-10T00:10:30;8.50;;;5.75;;
75793;SDS011;64418;47.536;19.074;2023-06-10T00:12:59;7.90;;;5.15;;
75793;SDS011;64418;47.536;19.074;2023-06-10T00:15:26;7.43;;;5.72;;
75793;SDS011;64418;47.536;19.074;2023-06-10T00:17:55;8.38;;;5.07;;
75793;SDS011;64418;47.536;19.074;2023-06-10T00:20:21;9.70;;;5.43;;
75793;SDS011;64418;47.536;19.074;2023-06-10T00:22:48;8.27;;;5.50;;
75793;SDS011;64418;47.536;19.074;2023-06-10T00:25:15;7.10;;;5.43;;
75793;SDS011;64418;47.536;19.074;2023-06-10T00:27:44;7.82;;;5.00;;
75793;SDS011;64418;47.536;19.074;2023-06-10T00:30:13;6.72;;;5.12;;
75793;SDS011;64418;47.536;19.074;2023-06-10T00:32:40;9.23;;;5.37;;
75793;SDS011;64418;47.536;19.074;2023-06-10T00:35:11;7.72;;;5.18;;
75793;SDS011;64418;47.536;19.074;2023-06-10T00:37:37;7.87;;;5.75;;
75793;SDS011;64418;47.536;19.074;2023-06-10T00:40:04;10.25;;;6.22;;
75793;SDS011;64418;47.536;19.074;2023-06-10T00:42:31;9.63;;;5.45;;
75793;SDS011;64418;47.536;19.074;2023-06-10T00:44:57;9.40;;;5.53;;
75793;SDS011;64418;47.536;19.074;2023-06-10T00:47:23;8.93;;;5.55;;
75793;SDS011;64418;47.536;19.074;2023-06-10T00:49:50;9.60;;;5.78;;
75793;SDS011;64418;47.536;19.074;2023-06-10T00:52:19;10.60;;;5.87;;
75793;SDS011;64418;47.536;19.074;2023-06-10T00:54:50;8.90;;;5.75;;
75793;SDS011;64418;47.536;19.074;2023-06-10T00:57:17;10.33;;;5.87;;
75793;SDS011;64418;47.536;19.074;2023-06-10T00:59:46;8.55;;;5.80;;
75793;SDS011;64418;47.536;19.074;2023-06-10T01:02:14;8.90;;;5.70;;
75793;SDS011;64418;47.536;19.074;2023-06-10T01:04:41;11.20;;;5.72;;
75793;SDS011;64418;47.536;19.074;2023-06-10T01:07:08;8.45;;;5.55;;
75793;SDS011;64418;47.536;19.074;2023-06-10T01:09:42;9.63;;;5.50;;
75793;SDS011;64418;47.536;19.074;2023-06-10T01:12:16;9.48;;;5.32;;
75793;SDS011;64418;47.536;19.074;2023-06-10T01:14:52;12.63;;;5.68;;
75793;SDS011;64418;47.536;19.074;2023-06-10T01:17:19;9.05;;;5.62;;
75793;SDS011;64418;47.536;19.074;2023-06-10T01:19:52;10.13;;;5.93;;
75793;SDS011;64418;47.536;19.074;2023-06-10T01:22:25;7.03;;;5.30;;
75793;SDS011;64418;47.536;19.074;2023-06-10T01:24:52;6.90;;;5.15;;
75793;SDS011;64418;47.536;19.074;2023-06-10T01:27:19;10.35;;;5.87;;
75793;SDS011;64418;47.536;19.074;2023-06-10T01:29:49;11.73;;;6.50;;
75793;SDS011;64418;47.536;19.074;2023-06-10T01:32:21;8.95;;;5.85;;
75793;SDS011;64418;47.536;19.074;2023-06-10T01:34:54;7.30;;;5.17;;
75793;SDS011;64418;47.536;19.074;2023-06-10T01:37:22;8.73;;;5.57;;
75793;SDS011;64418;47.536;19.074;2023-06-10T01:39:52;9.02;;;5.80;;
75793;SDS011;64418;47.536;19.074;2023-06-10T01:42:25;9.10;;;5.18;;
75793;SDS011;64418;47.536;19.074;2023-06-10T01:44:57;8.20;;;5.15;;
75793;SDS011;64418;47.536;19.074;2023-06-10T01:47:24;7.93;;;5.10;;
75793;SDS011;64418;47.536;19.074;2023-06-10T01:49:51;9.23;;;5.95;;
75793;SDS011;64418;47.536;19.074;2023-06-10T01:52:20;8.50;;;5.55;;
75793;SDS011;64418;47.536;19.074;2023-06-10T01:54:48;8.05;;;5.15;;
75793;SDS011;64418;47.536;19.074;2023-06-10T01:57:14;7.57;;;5.28;;
75793;SDS011;64418;47.536;19.074;2023-06-10T01:59:40;8.57;;;5.20;;
75793;SDS011;64418;47.536;19.074;2023-06-10T02:02:07;7.47;;;4.80;;
75793;SDS011;64418;47.536;19.074;2023-06-10T02:04:33;13.23;;;5.12;;
75793;SDS011;64418;47.536;19.074;2023-06-10T02:06:59;7.45;;;5.20;;
75793;SDS011;64418;47.536;19.074;2023-06-10T02:09:26;6.95;;;5.15;;
75793;SDS011;64418;47.536;19.074;2023-06-10T02:11:53;8.17;;;5.63;;
75793;SDS011;64418;47.536;19.074;2023-06-10T02:14:20;9.50;;;5.00;;
75793;SDS011;64418;47.536;19.074;2023-06-10T02:16:47;10.65;;;5.97;;
75793;SDS011;64418;47.536;19.074;2023-06-10T02:19:14;7.30;;;5.62;;
75793;SDS011;64418;47.536;19.074;2023-06-10T02:21:39;9.07;;;5.43;;
75793;SDS011;64418;47.536;19.074;2023-06-10T02:24:06;10.65;;;5.60;;
75793;SDS011;64418;47.536;19.074;2023-06-10T02:26:33;7.00;;;5.80;;
75793;SDS011;64418;47.536;19.074;2023-06-10T02:29:01;8.38;;;5.75;;
75793;SDS011;64418;47.536;19.074;2023-06-10T02:31:27;7.60;;;5.40;;
75793;SDS011;64418;47.536;19.074;2023-06-10T02:33:53;7.10;;;5.33;;
75793;SDS011;64418;47.536;19.074;2023-06-10T02:36:20;7.72;;;5.43;;
75793;SDS011;64418;47.536;19.074;2023-06-10T02:38:48;6.70;;;5.15;;
75793;SDS011;64418;47.536;19.074;2023-06-10T02:41:14;10.73;;;5.72;;
75793;SDS011;64418;47.536;19.074;2023-06-10T02:43:41;9.52;;;5.50;;
75793;SDS011;64418;47.536;19.074;2023-06-10T02:46:09;8.83;;;5.30;;
75793;SDS011;64418;47.536;19.074;2023-06-10T02:48:40;8.77;;;5.45;;
75793;SDS011;64418;47.536;19.074;2023-06-10T02:51:07;8.82;;;5.53;;
75793;SDS011;64418;47.536;19.074;2023-06-10T02:53:36;9.85;;;5.40;;
75793;SDS011;64418;47.536;19.074;2023-06-10T02:56:03;8.25;;;5.40;;
75793;SDS011;64418;47.536;19.074;2023-06-10T02:58:30;9.80;;;5.57;;
75793;SDS011;64418;47.536;19.074;2023-06-10T03:00:56;7.03;;;5.25;;
75793;SDS011;64418;47.536;19.074;2023-06-10T03:03:24;9.38;;;5.72;;
75793;SDS011;64418;47.536;19.074;2023-06-10T03:05:51;8.90;;;5.10;;
75793;SDS011;64418;47.536;19.074;2023-06-10T03:08:17;8.95;;;6.37;;
75793;SDS011;64418;47.536;19.074;2023-06-10T03:10:46;7.93;;;5.80;;
75793;SDS011;64418;47.536;19.074;2023-06-10T03:13:12;8.85;;;5.37;;
75793;SDS011;64418;47.536;19.074;2023-06-10T03:15:39;7.12;;;5.15;;
75793;SDS011;64418;47.536;19.074;2023-06-10T03:18:05;9.05;;;5.60;;
75793;SDS011;64418;47.536;19.074;2023-06-10T03:20:33;10.98;;;5.87;;
75793;SDS011;64418;47.536;19.074;2023-06-10T03:22:59;9.90;;;5.83;;
75793;SDS011;64418;47.536;19.074;2023-06-10T03:25:25;7.28;;;5.60;;
75793;SDS011;64418;47.536;19.074;2023-06-10T03:27:55;8.25;;;5.12;;
75793;SDS011;64418;47.536;19.074;2023-06-10T03:30:20;9.75;;;5.57;;
75793;SDS011;64418;47.536;19.074;2023-06-10T03:32:47;8.50;;;5.33;;
75793;SDS011;64418;47.536;19.074;2023-06-10T03:35:13;8.15;;;6.35;;
75793;SDS011;64418;47.536;19.074;2023-06-10T03:37:41;10.73;;;5.10;;
75793;SDS011;64418;47.536;19.074;2023-06-10T03:40:08;7.10;;;5.47;;
75793;SDS011;64418;47.536;19.074;2023-06-10T03:42:34;8.07;;;5.20;;
75793;SDS011;64418;47.536;19.074;2023-06-10T03:45:00;7.75;;;5.07;;
75793;SDS011;64418;47.536;19.074;2023-06-10T03:47:26;6.45;;;5.07;;
75793;SDS011;64418;47.536;19.074;2023-06-10T03:49:58;7.87;;;5.50;;
75793;SDS011;64418;47.536;19.074;2023-06-10T03:52:24;9.53;;;5.80;;
75793;SDS011;64418;47.536;19.074;2023-06-10T03:54:52;9.52;;;5.53;;
75793;SDS011;64418;47.536;19.074;2023-06-10T03:57:17;8.30;;;5.78;;
75793;SDS011;64418;47.536;19.074;2023-06-10T03:59:43;7.67;;;5.00;;
75793;SDS011;64418;47.536;19.074;2023-06-10T04:02:10;6.32;;;4.82;;
75793;SDS011;64418;47.536;19.074;2023-06-10T04:04:36;7.68;;;5.28;;
75793;SDS011;64418;47.536;19.074;2023-06-10T04:07:03;7.05;;;5.22;;
75793;SDS011;64418;47.536;19.074;2023-06-10T04:09:29;8.15;;;5.05;;
75793;SDS011;64418;47.536;19.074;2023-06-10T04:11:58;6.63;;;4.70;;
75793;SDS011;64418;47.536;19.074;2023-06-10T04:14:24;7.68;;;4.90;;
75793;SDS011;64418;47.536;19.074;2023-06-10T04:16:50;6.87;;;4.87;;
75793;SDS011;64418;47.536;19.074;2023-06-10T04:19:18;9.82;;;5.15;;
75793;SDS011;64418;47.536;19.074;2023-06-10T04:21:44;6.18;;;4.85;;
75793;SDS011;64418;47.536;19.074;2023-06-10T04:24:13;7.40;;;5.00;;
75793;SDS011;64418;47.536;19.074;2023-06-10T04:26:40;7.85;;;4.70;;
75793;SDS011;64418;47.536;19.074;2023-06-10T04:29:08;6.20;;;4.90;;
75793;SDS011;64418;47.536;19.074;2023-06-10T04:31:34;9.90;;;5.30;;
75793;SDS011;64418;47.536;19.074;2023-06-10T04:34:00;9.65;;;4.60;;
75793;SDS011;64418;47.536;19.074;2023-06-10T04:36:27;5.40;;;4.20;;
75793;SDS011;64418;47.536;19.074;2023-06-10T04:38:54;6.43;;;4.32;;
75793;SDS011;64418;47.536;19.074;2023-06-10T04:41:21;5.70;;;4.40;;
75793;SDS011;64418;47.536;19.074;2023-06-10T04:43:47;7.37;;;4.78;;
75793;SDS011;64418;47.536;19.074;2023-06-10T04:46:15;6.47;;;4.57;;
75793;SDS011;64418;47.536;19.074;2023-06-10T04:48:41;7.97;;;4.67;;
75793;SDS011;64418;47.536;19.074;2023-06-10T04:51:07;6.50;;;5.10;;
75793;SDS011;64418;47.536;19.074;2023-06-10T04:53:34;11.52;;;4.80;;
75793;SDS011;64418;47.536;19.074;2023-06-10T04:56:02;6.50;;;4.68;;
75793;SDS011;64418;47.536;19.074;2023-06-10T04:58:29;6.37;;;4.37;;
75793;SDS011;64418;47.536;19.074;2023-06-10T05:00:56;8.90;;;4.43;;
75793;SDS011;64418;47.536;19.074;2023-06-10T05:03:24;6.28;;;4.47;;
75793;SDS011;64418;47.536;19.074;2023-06-10T05:05:54;7.57;;;4.43;;
75793;SDS011;64418;47.536;19.074;2023-06-10T05:08:23;6.03;;;4.00;;
75793;SDS011;64418;47.536;19.074;2023-06-10T05:10:49;5.80;;;4.28;;
75793;SDS011;64418;47.536;19.074;2023-06-10T05:13:16;7.43;;;4.73;;
75793;SDS011;64418;47.536;19.074;2023-06-10T05:15:42;8.00;;;4.12;;
75793;SDS011;64418;47.536;19.074;2023-06-10T05:18:08;8.68;;;4.03;;
75793;SDS011;64418;47.536;19.074;2023-06-10T05:20:36;6.03;;;3.33;;
75793;SDS011;64418;47.536;19.074;2023-06-10T05:23:02;5.82;;;3.60;;
75793;SDS011;64418;47.536;19.074;2023-06-10T05:25:30;4.97;;;3.43;;
75793;SDS011;64418;47.536;19.074;2023-06-10T05:27:56;5.68;;;3.62;;
75793;SDS011;64418;47.536;19.074;2023-06-10T05:30:23;7.05;;;3.33;;
75793;SDS011;64418;47.536;19.074;2023-06-10T05:32:53;6.90;;;3.37;;
75793;SDS011;64418;47.536;19.074;2023-06-10T05:35:20;5.78;;;3.20;;
75793;SDS011;64418;47.536;19.074;2023-06-10T05:40:24;4.22;;;3.40;;
75793;SDS011;64418;47.536;19.074;2023-06-10T05:42:50;5.70;;;3.50;;
75793;SDS011;64418;47.536;19.074;2023-06-10T05:45:16;8.88;;;3.85;;
75793;SDS011;64418;47.536;19.074;2023-06-10T05:47:45;4.87;;;3.42;;
75793;SDS011;64418;47.536;19.074;2023-06-10T05:50:11;5.87;;;3.30;;
75793;SDS011;64418;47.536;19.074;2023-06-10T05:52:37;7.43;;;3.50;;
75793;SDS011;64418;47.536;19.074;2023-06-10T05:55:05;6.82;;;3.80;;
75793;SDS011;64418;47.536;19.074;2023-06-10T05:57:34;5.18;;;3.00;;
75793;SDS011;64418;47.536;19.074;2023-06-10T06:00:00;5.30;;;3.45;;
75793;SDS011;64418;47.536;19.074;2023-06-10T06:02:30;5.53;;;3.27;;
75793;SDS011;64418;47.536;19.074;2023-06-10T06:04:57;4.43;;;3.03;;
75793;SDS011;64418;47.536;19.074;2023-06-10T06:07:25;5.60;;;3.60;;
75793;SDS011;64418;47.536;19.074;2023-06-10T06:09:52;7.10;;;3.28;;
75793;SDS011;64418;47.536;19.074;2023-06-10T06:12:19;7.35;;;3.45;;
75793;SDS011;64418;47.536;19.074;2023-06-10T06:14:48;5.93;;;3.13;;
75793;SDS011;64418;47.536;19.074;2023-06-10T06:17:14;4.53;;;3.33;;
75793;SDS011;64418;47.536;19.074;2023-06-10T06:19:41;6.45;;;3.40;;
75793;SDS011;64418;47.536;19.074;2023-06-10T06:22:07;9.52;;;3.40;;
75793;SDS011;64418;47.536;19.074;2023-06-10T06:24:37;6.12;;;3.53;;
75793;SDS011;64418;47.536;19.074;2023-06-10T06:27:03;6.40;;;3.87;;
75793;SDS011;64418;47.536;19.074;2023-06-10T06:29:29;6.62;;;4.32;;
75793;SDS011;64418;47.536;19.074;2023-06-10T06:31:58;6.28;;;4.12;;
75793;SDS011;64418;47.536;19.074;2023-06-10T06:37:01;5.70;;;3.80;;
75793;SDS011;64418;47.536;19.074;2023-06-10T06:39:30;5.13;;;3.70;;
75793;SDS011;64418;47.536;19.074;2023-06-10T06:41:57;6.62;;;4.15;;
75793;SDS011;64418;47.536;19.074;2023-06-10T06:44:23;6.72;;;4.07;;
75793;SDS011;64418;47.536;19.074;2023-06-10T06:46:50;5.93;;;3.92;;
75793;SDS011;64418;47.536;19.074;2023-06-10T06:49:18;6.10;;;4.20;;
75793;SDS011;64418;47.536;19.074;2023-06-10T06:51:49;5.70;;;4.00;;
75793;SDS011;64418;47.536;19.074;2023-06-10T06:54:15;10.43;;;4.37;;
75793;SDS011;64418;47.536;19.074;2023-06-10T06:56:42;7.12;;;4.32;;
75793;SDS011;64418;47.536;19.074;2023-06-10T06:59:08;9.88;;;4.07;;
75793;SDS011;64418;47.536;19.074;2023-06-10T07:01:34;7.37;;;4.20;;
75793;SDS011;64418;47.536;19.074;2023-06-10T07:03:59;6.57;;;4.37;;
75793;SDS011;64418;47.536;19.074;2023-06-10T07:06:28;5.25;;;4.12;;
75793;SDS011;64418;47.536;19.074;2023-06-10T07:08:54;6.47;;;4.12;;
75793;SDS011;64418;47.536;19.074;2023-06-10T07:11:20;5.77;;;4.30;;
75793;SDS011;64418;47.536;19.074;2023-06-10T07:13:46;4.70;;;4.10;;
75793;SDS011;64418;47.536;19.074;2023-06-10T07:16:12;6.68;;;4.93;;
75793;SDS011;64418;47.536;19.074;2023-06-10T07:18:38;7.12;;;4.65;;
75793;SDS011;64418;47.536;19.074;2023-06-10T07:21:04;8.10;;;4.33;;
75793;SDS011;64418;47.536;19.074;2023-06-10T07:23:33;7.72;;;4.25;;
75793;SDS011;64418;47.536;19.074;2023-06-10T07:25:59;6.10;;;4.30;;
75793;SDS011;64418;47.536;19.074;2023-06-10T07:28:25;5.30;;;4.30;;
75793;SDS011;64418;47.536;19.074;2023-06-10T07:30:51;5.57;;;4.37;;
75793;SDS011;64418;47.536;19.074;2023-06-10T07:33:17;4.53;;;4.10;;
75793;SDS011;64418;47.536;19.074;2023-06-10T07:35:43;5.40;;;4.30;;
75793;SDS011;64418;47.536;19.074;2023-06-10T07:38:10;7.18;;;4.62;;
75793;SDS011;64418;47.536;19.074;2023-06-10T07:40:39;8.23;;;5.03;;
75793;SDS011;64418;47.536;19.074;2023-06-10T07:43:05;6.60;;;4.70;;
75793;SDS011;64418;47.536;19.074;2023-06-10T07:45:31;5.28;;;4.60;;
75793;SDS011;64418;47.536;19.074;2023-06-10T07:47:58;6.37;;;4.55;;
75793;SDS011;64418;47.536;19.074;2023-06-10T07:50:25;6.03;;;4.30;;
75793;SDS011;64418;47.536;19.074;2023-06-10T07:52:52;6.90;;;4.28;;
75793;SDS011;64418;47.536;19.074;2023-06-10T07:55:19;5.70;;;4.03;;
75793;SDS011;64418;47.536;19.074;2023-06-10T07:57:47;5.32;;;4.18;;
75793;SDS011;64418;47.536;19.074;2023-06-10T08:00:15;5.12;;;4.30;;
75793;SDS011;64418;47.536;19.074;2023-06-10T08:02:44;6.43;;;4.40;;
75793;SDS011;64418;47.536;19.074;2023-06-10T08:05:16;7.10;;;4.23;;
75793;SDS011;64418;47.536;19.074;2023-06-10T08:07:42;7.40;;;4.78;;
75793;SDS011;64418;47.536;19.074;2023-06-10T08:10:10;5.25;;;4.55;;
75793;SDS011;64418;47.536;19.074;2023-06-10T08:12:39;6.15;;;4.78;;
75793;SDS011;64418;47.536;19.074;2023-06-10T08:15:08;5.95;;;4.32;;
75793;SDS011;64418;47.536;19.074;2023-06-10T08:17:34;6.80;;;4.80;;
75793;SDS011;64418;47.536;19.074;2023-06-10T08:20:00;8.45;;;5.30;;
75793;SDS011;64418;47.536;19.074;2023-06-10T08:22:27;6.28;;;4.90;;
75793;SDS011;64418;47.536;19.074;2023-06-10T08:24:53;4.78;;;4.28;;
75793;SDS011;64418;47.536;19.074;2023-06-10T08:27:20;7.35;;;5.15;;
75793;SDS011;64418;47.536;19.074;2023-06-10T08:29:46;6.77;;;5.40;;
75793;SDS011;64418;47.536;19.074;2023-06-10T08:32:14;7.75;;;4.80;;
75793;SDS011;64418;47.536;19.074;2023-06-10T08:34:40;6.32;;;5.72;;
75793;SDS011;64418;47.536;19.074;2023-06-10T08:37:06;8.48;;;5.32;;
75793;SDS011;64418;47.536;19.074;2023-06-10T08:39:33;6.87;;;5.80;;
75793;SDS011;64418;47.536;19.074;2023-06-10T08:42:00;6.65;;;5.70;;
75793;SDS011;64418;47.536;19.074;2023-06-10T08:44:36;7.93;;;5.50;;
75793;SDS011;64418;47.536;19.074;2023-06-10T08:47:03;5.70;;;5.03;;
75793;SDS011;64418;47.536;19.074;2023-06-10T08:49:38;5.65;;;5.07;;
75793;SDS011;64418;47.536;19.074;2023-06-10T08:52:06;7.33;;;5.27;;
75793;SDS011;64418;47.536;19.074;2023-06-10T08:54:33;9.35;;;5.40;;
75793;SDS011;64418;47.536;19.074;2023-06-10T08:57:02;6.57;;;5.50;;
75793;SDS011;64418;47.536;19.074;2023-06-10T08:59:33;5.62;;;5.05;;
75793;SDS011;64418;47.536;19.074;2023-06-10T09:01:59;6.25;;;5.62;;
75793;SDS011;64418;47.536;19.074;2023-06-10T09:04:28;7.43;;;5.60;;
75793;SDS011;64418;47.536;19.074;2023-06-10T09:06:56;7.37;;;5.47;;
75793;SDS011;64418;47.536;19.074;2023-06-10T09:09:22;6.95;;;6.15;;
75793;SDS011;64418;47.536;19.074;2023-06-10T09:11:50;5.82;;;4.93;;
75793;SDS011;64418;47.536;19.074;2023-06-10T09:14:16;6.20;;;5.60;;
75793;SDS011;64418;47.536;19.074;2023-06-10T09:16:42;10.57;;;6.13;;
75793;SDS011;64418;47.536;19.074;2023-06-10T09:19:09;7.70;;;6.10;;
75793;SDS011;64418;47.536;19.074;2023-06-10T09:21:36;6.30;;;5.70;;
75793;SDS011;64418;47.536;19.074;2023-06-10T09:24:04;6.75;;;6.05;;
75793;SDS011;64418;47.536;19.074;2023-06-10T09:26:31;7.50;;;6.43;;
75793;SDS011;64418;47.536;19.074;2023-06-10T09:28:58;7.00;;;6.30;;
75793;SDS011;64418;47.536;19.074;2023-06-10T09:31:29;7.03;;;6.18;;
75793;SDS011;64418;47.536;19.074;2023-06-10T09:34:04;11.15;;;6.57;;
75793;SDS011;64418;47.536;19.074;2023-06-10T09:36:32;8.70;;;6.72;;
75793;SDS011;64418;47.536;19.074;2023-06-10T09:38:59;7.05;;;6.35;;
75793;SDS011;64418;47.536;19.074;2023-06-10T09:41:33;7.90;;;7.10;;
75793;SDS011;64418;47.536;19.074;2023-06-10T09:44:00;12.85;;;8.13;;
75793;SDS011;64418;47.536;19.074;2023-06-10T09:46:30;9.23;;;7.10;;
75793;SDS011;64418;47.536;19.074;2023-06-10T09:48:57;7.87;;;7.03;;
75793;SDS011;64418;47.536;19.074;2023-06-10T09:51:23;8.93;;;7.37;;
75793;SDS011;64418;47.536;19.074;2023-06-10T09:53:53;9.13;;;7.73;;
75793;SDS011;64418;47.536;19.074;2023-06-10T09:56:19;10.20;;;7.47;;
75793;SDS011;64418;47.536;19.074;2023-06-10T09:58:47;9.55;;;8.00;;
75793;SDS011;64418;47.536;19.074;2023-06-10T10:01:13;9.32;;;8.00;;
75793;SDS011;64418;47.536;19.074;2023-06-10T10:03:43;10.70;;;8.55;;
75793;SDS011;64418;47.536;19.074;2023-06-10T10:06:11;12.10;;;9.43;;
75793;SDS011;64418;47.536;19.074;2023-06-10T10:08:38;10.93;;;9.70;;
75793;SDS011;64418;47.536;19.074;2023-06-10T10:11:05;9.80;;;8.80;;
75793;SDS011;64418;47.536;19.074;2023-06-10T10:13:32;10.52;;;8.88;;
75793;SDS011;64418;47.536;19.074;2023-06-10T10:16:04;12.25;;;8.82;;
75793;SDS011;64418;47.536;19.074;2023-06-10T10:18:35;10.97;;;9.43;;
75793;SDS011;64418;47.536;19.074;2023-06-10T10:21:05;10.57;;;9.20;;
75793;SDS011;64418;47.536;19.074;2023-06-10T10:23:39;14.63;;;9.15;;
75793;SDS011;64418;47.536;19.074;2023-06-10T10:26:11;9.55;;;8.30;;
75793;SDS011;64418;47.536;19.074;2023-06-10T10:28:41;9.70;;;7.97;;
75793;SDS011;64418;47.536;19.074;2023-06-10T10:31:15;8.07;;;7.27;;
75793;SDS011;64418;47.536;19.074;2023-06-10T10:33:48;8.30;;;6.82;;
75793;SDS011;64418;47.536;19.074;2023-06-10T10:36:20;7.85;;;6.78;;
75793;SDS011;64418;47.536;19.074;2023-06-10T10:38:47;8.15;;;6.70;;
75793;SDS011;64418;47.536;19.074;2023-06-10T10:41:13;9.30;;;7.17;;
75793;SDS011;64418;47.536;19.074;2023-06-10T10:43:40;7.97;;;6.85;;
75793;SDS011;64418;47.536;19.074;2023-06-10T10:46:08;7.43;;;6.62;;
75793;SDS011;64418;47.536;19.074;2023-06-10T10:48:40;6.53;;;5.93;;
75793;SDS011;64418;47.536;19.074;2023-06-10T10:51:06;8.35;;;6.60;;
75793;SDS011;64418;47.536;19.074;2023-06-10T10:53:33;8.27;;;7.17;;
75793;SDS011;64418;47.536;19.074;2023-06-10T10:55:59;8.55;;;7.10;;
75793;SDS011;64418;47.536;19.074;2023-06-10T10:58:29;7.80;;;6.62;;
75793;SDS011;64418;47.536;19.074;2023-06-10T11:00:56;6.43;;;5.82;;
75793;SDS011;64418;47.536;19.074;2023-06-10T11:03:24;6.90;;;6.30;;
75793;SDS011;64418;47.536;19.074;2023-06-10T11:05:56;6.00;;;5.40;;
75793;SDS011;64418;47.536;19.074;2023-06-10T11:11:23;5.82;;;5.30;;
75793;SDS011;64418;47.536;19.074;2023-06-10T11:14:06;6.00;;;5.40;;
75793;SDS011;64418;47.536;19.074;2023-06-10T11:16:38;6.65;;;5.10;;
75793;SDS011;64418;47.536;19.074;2023-06-10T11:19:06;6.37;;;4.50;;
75793;SDS011;64418;47.536;19.074;2023-06-10T11:21:37;5.87;;;5.20;;
75793;SDS011;64418;47.536;19.074;2023-06-10T11:24:22;7.60;;;5.12;;
75793;SDS011;64418;47.536;19.074;2023-06-10T11:26:48;5.22;;;4.62;;
75793;SDS011;64418;47.536;19.074;2023-06-10T11:29:14;5.50;;;5.00;;
75793;SDS011;64418;47.536;19.074;2023-06-10T11:31:44;6.55;;;5.10;;
75793;SDS011;64418;47.536;19.074;2023-06-10T11:34:15;7.43;;;5.82;;
75793;SDS011;64418;47.536;19.074;2023-06-10T11:36:47;6.65;;;6.05;;
75793;SDS011;64418;47.536;19.074;2023-06-10T11:39:14;12.13;;;6.77;;
75793;SDS011;64418;47.536;19.074;2023-06-10T11:41:40;7.50;;;6.72;;
75793;SDS011;64418;47.536;19.074;2023-06-10T11:44:10;8.82;;;6.85;;
75793;SDS011;64418;47.536;19.074;2023-06-10T11:46:37;6.28;;;5.43;;
75793;SDS011;64418;47.536;19.074;2023-06-10T11:49:05;6.10;;;5.50;;
75793;SDS011;64418;47.536;19.074;2023-06-10T11:51:32;5.60;;;5.10;;
75793;SDS011;64418;47.536;19.074;2023-06-10T11:54:02;5.50;;;5.00;;
75793;SDS011;64418;47.536;19.074;2023-06-10T11:56:29;7.15;;;5.32;;
75793;SDS011;64418;47.536;19.074;2023-06-10T11:58:57;7.78;;;5.45;;
75793;SDS011;64418;47.536;19.074;2023-06-10T12:01:24;6.12;;;5.50;;
75793;SDS011;64418;47.536;19.074;2023-06-10T12:03:58;6.17;;;5.57;;
75793;SDS011;64418;47.536;19.074;2023-06-10T12:06:26;6.10;;;5.50;;
75793;SDS011;64418;47.536;19.074;2023-06-10T12:08:53;5.82;;;5.30;;
75793;SDS011;64418;47.536;19.074;2023-06-10T12:11:20;6.10;;;5.00;;
75793;SDS011;64418;47.536;19.074;2023-06-10T12:13:47;6.05;;;5.50;;
75793;SDS011;64418;47.536;19.074;2023-06-10T12:16:15;5.57;;;5.07;;
75793;SDS011;64418;47.536;19.074;2023-06-10T12:18:42;6.65;;;5.12;;
75793;SDS011;64418;47.536;19.074;2023-06-10T12:21:16;4.25;;;3.58;;
75793;SDS011;64418;47.536;19.074;2023-06-10T12:24:02;4.15;;;3.10;;
75793;SDS011;64418;47.536;19.074;2023-06-10T12:26:41;2.87;;;2.58;;
75793;SDS011;64418;47.536;19.074;2023-06-10T12:29:21;2.90;;;2.60;;
75793;SDS011;64418;47.536;19.074;2023-06-10T12:31:54;3.08;;;2.78;;
75793;SDS011;64418;47.536;19.074;2023-06-10T12:34:27;5.05;;;3.15;;
75793;SDS011;64418;47.536;19.074;2023-06-10T12:36:57;2.90;;;2.60;;
75793;SDS011;64418;47.536;19.074;2023-06-10T12:39:23;2.95;;;2.50;;
75793;SDS011;64418;47.536;19.074;2023-06-10T12:41:51;3.13;;;2.47;;
75793;SDS011;64418;47.536;19.074;2023-06-10T12:44:18;3.45;;;2.42;;
75793;SDS011;64418;47.536;19.074;2023-06-10T12:46:53;3.05;;;2.75;;
75793;SDS011;64418;47.536;19.074;2023-06-10T12:49:20;3.55;;;2.47;;
75793;SDS011;64418;47.536;19.074;2023-06-10T12:51:46;2.55;;;2.35;;
75793;SDS011;64418;47.536;19.074;2023-06-10T12:54:13;3.73;;;2.20;;
75793;SDS011;64418;47.536;19.074;2023-06-10T12:56:40;3.47;;;2.42;;
75793;SDS011;64418;47.536;19.074;2023-06-10T12:59:08;4.95;;;2.50;;
75793;SDS011;64418;47.536;19.074;2023-06-10T13:01:34;4.12;;;2.65;;
75793;SDS011;64418;47.536;19.074;2023-06-10T13:04:04;4.32;;;2.45;;
75793;SDS011;64418;47.536;19.074;2023-06-10T13:06:31;3.43;;;2.30;;
75793;SDS011;64418;47.536;19.074;2023-06-10T13:08:57;3.92;;;2.30;;
75793;SDS011;64418;47.536;19.074;2023-06-10T13:11:26;2.53;;;2.10;;
75793;SDS011;64418;47.536;19.074;2023-06-10T13:13:56;2.58;;;2.20;;
75793;SDS011;64418;47.536;19.074;2023-06-10T13:16:23;2.67;;;2.30;;
75793;SDS011;64418;47.536;19.074;2023-06-10T13:18:49;2.60;;;2.30;;
75793;SDS011;64418;47.536;19.074;2023-06-10T13:21:16;2.45;;;2.22;;
75793;SDS011;64418;47.536;19.074;2023-06-10T13:23:44;3.87;;;2.37;;
75793;SDS011;64418;47.536;19.074;2023-06-10T13:26:11;2.47;;;2.28;;
75793;SDS011;64418;47.536;19.074;2023-06-10T13:28:37;2.73;;;2.27;;
75793;SDS011;64418;47.536;19.074;2023-06-10T13:31:04;2.55;;;2.35;;
75793;SDS011;64418;47.536;19.074;2023-06-10T13:33:33;5.00;;;3.00;;
75793;SDS011;64418;47.536;19.074;2023-06-10T13:35:58;4.80;;;2.97;;
75793;SDS011;64418;47.536;19.074;2023-06-10T13:38:26;2.72;;;2.30;;
75793;SDS011;64418;47.536;19.074;2023-06-10T13:40:53;3.60;;;2.67;;
75793;SDS011;64418;47.536;19.074;2023-06-10T13:43:20;3.17;;;2.50;;
75793;SDS011;64418;47.536;19.074;2023-06-10T13:45:46;3.75;;;3.00;;
75793;SDS011;64418;47.536;19.074;2023-06-10T13:48:13;4.10;;;2.65;;
75793;SDS011;64418;47.536;19.074;2023-06-10T13:50:41;3.00;;;2.70;;
75793;SDS011;64418;47.536;19.074;2023-06-10T13:53:08;3.20;;;2.60;;
75793;SDS011;64418;47.536;19.074;2023-06-10T13:55:35;2.90;;;2.45;;
75793;SDS011;64418;47.536;19.074;2023-06-10T13:58:01;3.97;;;2.80;;
75793;SDS011;64418;47.536;19.074;2023-06-10T14:00:28;3.30;;;2.80;;
75793;SDS011;64418;47.536;19.074;2023-06-10T14:02:54;4.60;;;2.90;;
75793;SDS011;64418;47.536;19.074;2023-06-10T14:05:21;2.65;;;2.40;;
75793;SDS011;64418;47.536;19.074;2023-06-10T14:07:49;2.92;;;2.55;;
75793;SDS011;64418;47.536;19.074;2023-06-10T14:10:16;3.03;;;2.65;;
75793;SDS011;64418;47.536;19.074;2023-06-10T14:12:42;3.08;;;2.35;;
75793;SDS011;64418;47.536;19.074;2023-06-10T14:15:08;2.20;;;1.80;;
75793;SDS011;64418;47.536;19.074;2023-06-10T14:17:35;2.47;;;2.28;;
75793;SDS011;64418;47.536;19.074;2023-06-10T14:20:02;3.10;;;2.05;;
75793;SDS011;64418;47.536;19.074;2023-06-10T14:22:28;4.15;;;1.80;;
75793;SDS011;64418;47.536;19.074;2023-06-10T14:24:56;3.43;;;2.40;;
75793;SDS011;64418;47.536;19.074;2023-06-10T14:27:21;3.83;;;2.22;;
75793;SDS011;64418;47.536;19.074;2023-06-10T14:29:48;2.50;;;2.30;;
75793;SDS011;64418;47.536;19.074;2023-06-10T14:32:14;3.10;;;2.30;;
75793;SDS011;64418;47.536;19.074;2023-06-10T14:34:39;3.37;;;2.40;;
75793;SDS011;64418;47.536;19.074;2023-06-10T14:37:06;3.75;;;2.30;;
75793;SDS011;64418;47.536;19.074;2023-06-10T14:39:32;2.97;;;2.58;;
75793;SDS011;64418;47.536;19.074;2023-06-10T14:41:59;4.05;;;2.65;;
75793;SDS011;64418;47.536;19.074;2023-06-10T14:44:26;3.78;;;2.40;;